sensor_id;sensor_type;location;lat;lon;timestamp;P1;durP1;ratioP1;P2;durP2;ratioP2
2656;SDS011;1338;48.176;11.792;2023-09-18T00:02:05;6.73;;;6.00;;
2656;SDS011;1338;48.176;11.792;2023-09-18T00:04:34;7.10;;;6.50;;
2656;SDS011;1338;48.176;11.792;2023-09-18T00:07:03;7.30;;;6.70;;
2656;SDS011;1338;48.176;11.792;2023-09-18T00:09:32;7.00;;;6.40;;
2656;SDS011;1338;48.176;11.792;2023-09-18T00:12:01;7.10;;;6.50;;
2656;SDS011;1338;48.176;11.792;2023-09-18T00:14:31;7.20;;;6.60;;
2656;SDS011;1338;48.176;11.792;2023-09-18T00:17:02;6.90;;;6.30;;
2656;SDS011;1338;48.176;11.792;2023-09-18T00:19:31;7.20;;;6.13;;
2656;SDS011;1338;48.176;11.792;2023-09-18T00:22:01;7.23;;;6.57;;
2656;SDS011;1338;48.176;11.792;2023-09-18T00:24:33;6.30;;;5.80;;
2656;SDS011;1338;48.176;11.792;2023-09-18T00:27:02;6.83;;;6.23;;
2656;SDS011;1338;48.176;11.792;2023-09-18T00:29:31;7.10;;;6.50;;
2656;SDS011;1338;48.176;11.792;2023-09-18T00:31:59;7.37;;;6.67;;
2656;SDS011;1338;48.176;11.792;2023-09-18T00:34:39;6.20;;;5.60;;
2656;SDS011;1338;48.176;11.792;2023-09-18T00:37:08;7.47;;;6.77;;
2656;SDS011;1338;48.176;11.792;2023-09-18T00:39:39;7.43;;;6.73;;
2656;SDS011;1338;48.176;11.792;2023-09-18T00:42:11;8.00;;;6.80;;
2656;SDS011;1338;48.176;11.792;2023-09-18T00:44:40;7.33;;;6.70;;
2656;SDS011;1338;48.176;11.792;2023-09-18T00:47:10;6.80;;;6.03;;
2656;SDS011;1338;48.176;11.792;2023-09-18T00:49:41;7.07;;;6.47;;
2656;SDS011;1338;48.176;11.792;2023-09-18T00:52:14;6.50;;;5.90;;
2656;SDS011;1338;48.176;11.792;2023-09-18T00:54:45;6.70;;;6.10;;
2656;SDS011;1338;48.176;11.792;2023-09-18T00:57:16;7.33;;;6.70;;
2656;SDS011;1338;48.176;11.792;2023-09-18T00:59:44;7.50;;;6.80;;
2656;SDS011;1338;48.176;11.792;2023-09-18T01:02:15;6.97;;;6.37;;
2656;SDS011;1338;48.176;11.792;2023-09-18T01:04:43;6.77;;;6.27;;
2656;SDS011;1338;48.176;11.792;2023-09-18T01:07:12;7.53;;;6.93;;
2656;SDS011;1338;48.176;11.792;2023-09-18T01:09:41;6.97;;;6.40;;
2656;SDS011;1338;48.176;11.792;2023-09-18T01:12:12;9.63;;;6.37;;
2656;SDS011;1338;48.176;11.792;2023-09-18T01:14:50;7.00;;;6.40;;
2656;SDS011;1338;48.176;11.792;2023-09-18T01:17:29;6.70;;;6.20;;
2656;SDS011;1338;48.176;11.792;2023-09-18T01:20:04;6.70;;;6.10;;
2656;SDS011;1338;48.176;11.792;2023-09-18T01:22:35;7.37;;;6.67;;
2656;SDS011;1338;48.176;11.792;2023-09-18T01:25:04;7.40;;;6.80;;
2656;SDS011;1338;48.176;11.792;2023-09-18T01:27:33;7.40;;;6.80;;
2656;SDS011;1338;48.176;11.792;2023-09-18T01:30:05;7.70;;;7.00;;
2656;SDS011;1338;48.176;11.792;2023-09-18T01:32:34;7.77;;;7.10;;
2656;SDS011;1338;48.176;11.792;2023-09-18T01:35:06;7.73;;;6.93;;
2656;SDS011;1338;48.176;11.792;2023-09-18T01:37:38;7.10;;;6.50;;
2656;SDS011;1338;48.176;11.792;2023-09-18T01:40:08;7.40;;;6.63;;
2656;SDS011;1338;48.176;11.792;2023-09-18T01:42:37;7.63;;;6.93;;
2656;SDS011;1338;48.176;11.792;2023-09-18T01:45:10;6.30;;;5.80;;
2656;SDS011;1338;48.176;11.792;2023-09-18T01:47:41;6.97;;;6.33;;
2656;SDS011;1338;48.176;11.792;2023-09-18T01:50:12;7.37;;;6.63;;
2656;SDS011;1338;48.176;11.792;2023-09-18T01:52:42;6.77;;;6.27;;
2656;SDS011;1338;48.176;11.792;2023-09-18T01:55:11;8.00;;;6.63;;
2656;SDS011;1338;48.176;11.792;2023-09-18T01:57:40;6.90;;;6.30;;
2656;SDS011;1338;48.176;11.792;2023-09-18T02:00:10;6.83;;;6.23;;
2656;SDS011;1338;48.176;11.792;2023-09-18T02:02:40;6.90;;;6.30;;
2656;SDS011;1338;48.176;11.792;2023-09-18T02:05:29;7.07;;;6.00;;
2656;SDS011;1338;48.176;11.792;2023-09-18T02:08:03;5.80;;;5.30;;
2656;SDS011;1338;48.176;11.792;2023-09-18T02:10:32;6.00;;;5.50;;
2656;SDS011;1338;48.176;11.792;2023-09-18T02:13:02;6.37;;;5.87;;
2656;SDS011;1338;48.176;11.792;2023-09-18T02:15:31;7.60;;;6.00;;
2656;SDS011;1338;48.176;11.792;2023-09-18T02:18:01;6.27;;;5.67;;
2656;SDS011;1338;48.176;11.792;2023-09-18T02:20:39;6.87;;;6.00;;
2656;SDS011;1338;48.176;11.792;2023-09-18T02:23:10;7.00;;;6.37;;
2656;SDS011;1338;48.176;11.792;2023-09-18T02:25:39;6.50;;;5.80;;
2656;SDS011;1338;48.176;11.792;2023-09-18T02:28:08;6.13;;;5.63;;
2656;SDS011;1338;48.176;11.792;2023-09-18T02:30:38;6.90;;;5.63;;
2656;SDS011;1338;48.176;11.792;2023-09-18T02:33:07;6.67;;;6.07;;
2656;SDS011;1338;48.176;11.792;2023-09-18T02:35:36;5.93;;;5.33;;
2656;SDS011;1338;48.176;11.792;2023-09-18T02:38:05;6.50;;;5.90;;
2656;SDS011;1338;48.176;11.792;2023-09-18T02:40:35;5.57;;;5.10;;
2656;SDS011;1338;48.176;11.792;2023-09-18T02:43:04;6.30;;;5.70;;
2656;SDS011;1338;48.176;11.792;2023-09-18T02:45:33;7.40;;;6.70;;
2656;SDS011;1338;48.176;11.792;2023-09-18T02:48:03;6.50;;;6.00;;
2656;SDS011;1338;48.176;11.792;2023-09-18T02:50:32;6.60;;;6.10;;
2656;SDS011;1338;48.176;11.792;2023-09-18T02:53:01;7.23;;;6.63;;
2656;SDS011;1338;48.176;11.792;2023-09-18T02:55:31;6.60;;;6.00;;
2656;SDS011;1338;48.176;11.792;2023-09-18T02:58:01;6.33;;;5.87;;
2656;SDS011;1338;48.176;11.792;2023-09-18T03:00:30;6.60;;;6.00;;
2656;SDS011;1338;48.176;11.792;2023-09-18T03:03:10;7.43;;;6.73;;
2656;SDS011;1338;48.176;11.792;2023-09-18T03:05:43;6.67;;;6.07;;
2656;SDS011;1338;48.176;11.792;2023-09-18T03:08:13;7.30;;;6.60;;
2656;SDS011;1338;48.176;11.792;2023-09-18T03:10:42;9.80;;;6.20;;
2656;SDS011;1338;48.176;11.792;2023-09-18T03:13:14;5.93;;;5.43;;
2656;SDS011;1338;48.176;11.792;2023-09-18T03:15:46;6.37;;;5.87;;
2656;SDS011;1338;48.176;11.792;2023-09-18T03:18:16;7.37;;;6.73;;
2656;SDS011;1338;48.176;11.792;2023-09-18T03:20:46;6.57;;;5.97;;
2656;SDS011;1338;48.176;11.792;2023-09-18T03:23:14;6.50;;;5.90;;
2656;SDS011;1338;48.176;11.792;2023-09-18T03:25:45;5.90;;;5.40;;
2656;SDS011;1338;48.176;11.792;2023-09-18T03:28:20;7.43;;;6.30;;
2656;SDS011;1338;48.176;11.792;2023-09-18T03:30:49;6.30;;;5.70;;
2656;SDS011;1338;48.176;11.792;2023-09-18T03:33:22;6.23;;;5.63;;
2656;SDS011;1338;48.176;11.792;2023-09-18T03:35:51;6.20;;;5.70;;
2656;SDS011;1338;48.176;11.792;2023-09-18T03:38:25;6.27;;;5.73;;
2656;SDS011;1338;48.176;11.792;2023-09-18T03:40:55;6.37;;;5.40;;
2656;SDS011;1338;48.176;11.792;2023-09-18T03:43:28;5.83;;;5.33;;
2656;SDS011;1338;48.176;11.792;2023-09-18T03:46:02;6.60;;;6.07;;
2656;SDS011;1338;48.176;11.792;2023-09-18T03:48:38;6.20;;;5.70;;
2656;SDS011;1338;48.176;11.792;2023-09-18T03:51:07;6.60;;;6.10;;
2656;SDS011;1338;48.176;11.792;2023-09-18T03:53:38;6.73;;;6.13;;
2656;SDS011;1338;48.176;11.792;2023-09-18T03:56:07;7.50;;;5.70;;
2656;SDS011;1338;48.176;11.792;2023-09-18T03:58:37;6.53;;;6.03;;
2656;SDS011;1338;48.176;11.792;2023-09-18T04:01:07;7.03;;;5.70;;
2656;SDS011;1338;48.176;11.792;2023-09-18T04:03:37;6.60;;;6.00;;
2656;SDS011;1338;48.176;11.792;2023-09-18T04:06:07;7.17;;;6.50;;
2656;SDS011;1338;48.176;11.792;2023-09-18T04:08:36;6.97;;;6.37;;
2656;SDS011;1338;48.176;11.792;2023-09-18T04:11:05;6.90;;;6.30;;
2656;SDS011;1338;48.176;11.792;2023-09-18T04:13:38;5.77;;;5.27;;
2656;SDS011;1338;48.176;11.792;2023-09-18T04:16:07;6.23;;;5.73;;
2656;SDS011;1338;48.176;11.792;2023-09-18T04:18:36;5.87;;;5.27;;
2656;SDS011;1338;48.176;11.792;2023-09-18T04:21:05;5.90;;;5.40;;
2656;SDS011;1338;48.176;11.792;2023-09-18T04:23:34;6.00;;;5.50;;
2656;SDS011;1338;48.176;11.792;2023-09-18T04:26:06;6.53;;;5.60;;
2656;SDS011;1338;48.176;11.792;2023-09-18T04:28:34;6.50;;;5.90;;
2656;SDS011;1338;48.176;11.792;2023-09-18T04:31:04;5.83;;;5.33;;
2656;SDS011;1338;48.176;11.792;2023-09-18T04:33:35;6.17;;;5.67;;
2656;SDS011;1338;48.176;11.792;2023-09-18T04:36:04;9.50;;;5.20;;
2656;SDS011;1338;48.176;11.792;2023-09-18T04:38:33;6.30;;;5.80;;
2656;SDS011;1338;48.176;11.792;2023-09-18T04:41:02;5.67;;;5.20;;
2656;SDS011;1338;48.176;11.792;2023-09-18T04:43:31;5.93;;;5.43;;
2656;SDS011;1338;48.176;11.792;2023-09-18T04:46:00;6.50;;;5.90;;
2656;SDS011;1338;48.176;11.792;2023-09-18T04:48:35;5.90;;;4.90;;
2656;SDS011;1338;48.176;11.792;2023-09-18T04:51:04;5.97;;;5.47;;
2656;SDS011;1338;48.176;11.792;2023-09-18T04:53:34;6.47;;;5.70;;
2656;SDS011;1338;48.176;11.792;2023-09-18T04:56:04;6.27;;;5.67;;
2656;SDS011;1338;48.176;11.792;2023-09-18T04:58:33;6.80;;;5.73;;
2656;SDS011;1338;48.176;11.792;2023-09-18T05:01:04;5.93;;;5.43;;
2656;SDS011;1338;48.176;11.792;2023-09-18T05:03:38;8.43;;;5.63;;
2656;SDS011;1338;48.176;11.792;2023-09-18T05:06:09;6.00;;;5.50;;
2656;SDS011;1338;48.176;11.792;2023-09-18T05:08:38;6.13;;;5.63;;
2656;SDS011;1338;48.176;11.792;2023-09-18T05:11:07;6.03;;;5.37;;
2656;SDS011;1338;48.176;11.792;2023-09-18T05:13:38;6.97;;;5.70;;
2656;SDS011;1338;48.176;11.792;2023-09-18T05:16:07;5.83;;;5.33;;
2656;SDS011;1338;48.176;11.792;2023-09-18T05:18:35;6.23;;;5.73;;
2656;SDS011;1338;48.176;11.792;2023-09-18T05:21:06;6.37;;;5.77;;
2656;SDS011;1338;48.176;11.792;2023-09-18T05:23:36;5.77;;;5.27;;
2656;SDS011;1338;48.176;11.792;2023-09-18T05:26:05;7.07;;;6.37;;
2656;SDS011;1338;48.176;11.792;2023-09-18T05:28:34;7.80;;;6.73;;
2656;SDS011;1338;48.176;11.792;2023-09-18T05:31:02;6.90;;;6.17;;
2656;SDS011;1338;48.176;11.792;2023-09-18T05:33:31;8.60;;;5.87;;
2656;SDS011;1338;48.176;11.792;2023-09-18T05:36:00;5.90;;;5.40;;
2656;SDS011;1338;48.176;11.792;2023-09-18T05:38:31;6.10;;;5.60;;
2656;SDS011;1338;48.176;11.792;2023-09-18T05:41:00;7.17;;;6.47;;
2656;SDS011;1338;48.176;11.792;2023-09-18T05:43:28;6.87;;;6.27;;
2656;SDS011;1338;48.176;11.792;2023-09-18T05:45:57;6.97;;;6.27;;
2656;SDS011;1338;48.176;11.792;2023-09-18T05:48:26;6.90;;;6.30;;
2656;SDS011;1338;48.176;11.792;2023-09-18T05:50:54;6.60;;;5.80;;
2656;SDS011;1338;48.176;11.792;2023-09-18T05:53:22;6.33;;;5.60;;
2656;SDS011;1338;48.176;11.792;2023-09-18T05:55:52;7.20;;;6.50;;
2656;SDS011;1338;48.176;11.792;2023-09-18T05:58:23;6.63;;;5.43;;
2656;SDS011;1338;48.176;11.792;2023-09-18T06:00:53;6.43;;;5.83;;
2656;SDS011;1338;48.176;11.792;2023-09-18T06:03:24;6.13;;;5.53;;
2656;SDS011;1338;48.176;11.792;2023-09-18T06:05:52;7.10;;;6.40;;
2656;SDS011;1338;48.176;11.792;2023-09-18T06:08:21;7.30;;;5.53;;
2656;SDS011;1338;48.176;11.792;2023-09-18T06:10:54;6.83;;;6.23;;
2656;SDS011;1338;48.176;11.792;2023-09-18T06:13:23;10.20;;;6.00;;
2656;SDS011;1338;48.176;11.792;2023-09-18T06:15:52;6.07;;;5.57;;
2656;SDS011;1338;48.176;11.792;2023-09-18T06:18:23;6.40;;;5.80;;
2656;SDS011;1338;48.176;11.792;2023-09-18T06:20:53;7.00;;;5.90;;
2656;SDS011;1338;48.176;11.792;2023-09-18T06:23:21;5.83;;;5.33;;
2656;SDS011;1338;48.176;11.792;2023-09-18T06:25:54;7.50;;;5.60;;
2656;SDS011;1338;48.176;11.792;2023-09-18T06:28:23;6.40;;;5.33;;
2656;SDS011;1338;48.176;11.792;2023-09-18T06:30:51;8.90;;;5.27;;
2656;SDS011;1338;48.176;11.792;2023-09-18T06:33:21;5.83;;;5.33;;
2656;SDS011;1338;48.176;11.792;2023-09-18T06:35:49;6.63;;;5.73;;
2656;SDS011;1338;48.176;11.792;2023-09-18T06:38:19;7.23;;;5.50;;
2656;SDS011;1338;48.176;11.792;2023-09-18T06:40:47;5.40;;;4.90;;
2656;SDS011;1338;48.176;11.792;2023-09-18T06:43:18;6.20;;;5.60;;
2656;SDS011;1338;48.176;11.792;2023-09-18T06:45:46;5.77;;;5.37;;
2656;SDS011;1338;48.176;11.792;2023-09-18T06:48:15;5.70;;;5.10;;
2656;SDS011;1338;48.176;11.792;2023-09-18T06:50:43;8.07;;;5.17;;
2656;SDS011;1338;48.176;11.792;2023-09-18T06:53:12;6.00;;;5.50;;
2656;SDS011;1338;48.176;11.792;2023-09-18T06:55:41;5.53;;;5.10;;
2656;SDS011;1338;48.176;11.792;2023-09-18T06:58:10;5.43;;;4.90;;
2656;SDS011;1338;48.176;11.792;2023-09-18T07:00:41;5.33;;;4.87;;
2656;SDS011;1338;48.176;11.792;2023-09-18T07:03:09;5.87;;;5.30;;
2656;SDS011;1338;48.176;11.792;2023-09-18T07:05:39;5.90;;;5.40;;
2656;SDS011;1338;48.176;11.792;2023-09-18T07:08:08;7.40;;;5.93;;
2656;SDS011;1338;48.176;11.792;2023-09-18T07:10:39;5.53;;;5.03;;
2656;SDS011;1338;48.176;11.792;2023-09-18T07:13:08;8.80;;;7.90;;
2656;SDS011;1338;48.176;11.792;2023-09-18T07:15:38;7.00;;;6.33;;
2656;SDS011;1338;48.176;11.792;2023-09-18T07:18:09;9.20;;;6.37;;
2656;SDS011;1338;48.176;11.792;2023-09-18T07:20:41;9.00;;;5.70;;
2656;SDS011;1338;48.176;11.792;2023-09-18T07:23:12;6.30;;;5.80;;
2656;SDS011;1338;48.176;11.792;2023-09-18T07:25:40;6.47;;;5.87;;
2656;SDS011;1338;48.176;11.792;2023-09-18T07:28:10;7.57;;;6.47;;
2656;SDS011;1338;48.176;11.792;2023-09-18T07:30:43;6.00;;;5.50;;
2656;SDS011;1338;48.176;11.792;2023-09-18T07:33:13;6.03;;;5.20;;
2656;SDS011;1338;48.176;11.792;2023-09-18T07:35:45;5.97;;;5.47;;
2656;SDS011;1338;48.176;11.792;2023-09-18T07:38:15;4.73;;;4.20;;
2656;SDS011;1338;48.176;11.792;2023-09-18T07:40:45;6.30;;;5.40;;
2656;SDS011;1338;48.176;11.792;2023-09-18T07:43:15;5.80;;;5.20;;
2656;SDS011;1338;48.176;11.792;2023-09-18T07:45:44;4.97;;;4.63;;
2656;SDS011;1338;48.176;11.792;2023-09-18T07:48:14;5.50;;;5.00;;
2656;SDS011;1338;48.176;11.792;2023-09-18T07:50:47;5.40;;;4.90;;
2656;SDS011;1338;48.176;11.792;2023-09-18T07:53:17;6.37;;;5.00;;
2656;SDS011;1338;48.176;11.792;2023-09-18T07:55:47;6.10;;;4.60;;
2656;SDS011;1338;48.176;11.792;2023-09-18T07:58:23;5.80;;;5.27;;
2656;SDS011;1338;48.176;11.792;2023-09-18T08:00:54;6.93;;;5.17;;
2656;SDS011;1338;48.176;11.792;2023-09-18T08:03:25;6.97;;;6.33;;
2656;SDS011;1338;48.176;11.792;2023-09-18T08:05:54;5.80;;;5.30;;
2656;SDS011;1338;48.176;11.792;2023-09-18T08:08:24;6.33;;;4.90;;
2656;SDS011;1338;48.176;11.792;2023-09-18T08:10:53;5.80;;;5.30;;
2656;SDS011;1338;48.176;11.792;2023-09-18T08:13:21;6.53;;;5.67;;
2656;SDS011;1338;48.176;11.792;2023-09-18T08:15:50;6.10;;;5.50;;
2656;SDS011;1338;48.176;11.792;2023-09-18T08:18:19;6.90;;;5.50;;
2656;SDS011;1338;48.176;11.792;2023-09-18T08:20:49;6.13;;;5.63;;
2656;SDS011;1338;48.176;11.792;2023-09-18T08:23:17;5.90;;;5.30;;
2656;SDS011;1338;48.176;11.792;2023-09-18T08:25:46;7.13;;;6.03;;
2656;SDS011;1338;48.176;11.792;2023-09-18T08:28:16;5.83;;;5.10;;
2656;SDS011;1338;48.176;11.792;2023-09-18T08:30:45;5.93;;;5.40;;
2656;SDS011;1338;48.176;11.792;2023-09-18T08:33:13;6.20;;;5.60;;
2656;SDS011;1338;48.176;11.792;2023-09-18T08:35:42;6.03;;;5.53;;
2656;SDS011;1338;48.176;11.792;2023-09-18T08:38:15;7.67;;;5.83;;
2656;SDS011;1338;48.176;11.792;2023-09-18T08:40:43;5.83;;;5.33;;
2656;SDS011;1338;48.176;11.792;2023-09-18T08:43:13;5.60;;;5.03;;
2656;SDS011;1338;48.176;11.792;2023-09-18T08:45:46;6.73;;;5.07;;
2656;SDS011;1338;48.176;11.792;2023-09-18T08:48:19;6.07;;;5.37;;
2656;SDS011;1338;48.176;11.792;2023-09-18T08:50:48;6.17;;;5.60;;
2656;SDS011;1338;48.176;11.792;2023-09-18T08:53:20;5.20;;;4.80;;
2656;SDS011;1338;48.176;11.792;2023-09-18T08:55:49;6.07;;;5.50;;
2656;SDS011;1338;48.176;11.792;2023-09-18T08:58:17;7.33;;;5.40;;
2656;SDS011;1338;48.176;11.792;2023-09-18T09:00:49;6.13;;;5.60;;
2656;SDS011;1338;48.176;11.792;2023-09-18T09:03:19;5.63;;;5.20;;
2656;SDS011;1338;48.176;11.792;2023-09-18T09:05:50;8.53;;;6.10;;
2656;SDS011;1338;48.176;11.792;2023-09-18T09:08:20;6.20;;;5.60;;
2656;SDS011;1338;48.176;11.792;2023-09-18T09:10:48;8.03;;;5.90;;
2656;SDS011;1338;48.176;11.792;2023-09-18T09:13:17;6.00;;;5.50;;
2656;SDS011;1338;48.176;11.792;2023-09-18T09:16:06;7.13;;;6.43;;
2656;SDS011;1338;48.176;11.792;2023-09-18T09:18:47;8.03;;;5.90;;
2656;SDS011;1338;48.176;11.792;2023-09-18T09:21:17;6.90;;;6.20;;
2656;SDS011;1338;48.176;11.792;2023-09-18T09:23:49;8.83;;;7.93;;
2656;SDS011;1338;48.176;11.792;2023-09-18T09:26:20;6.73;;;6.13;;
2656;SDS011;1338;48.176;11.792;2023-09-18T09:28:50;6.40;;;5.80;;
2656;SDS011;1338;48.176;11.792;2023-09-18T09:31:23;7.33;;;6.73;;
2656;SDS011;1338;48.176;11.792;2023-09-18T09:33:52;6.90;;;6.10;;
2656;SDS011;1338;48.176;11.792;2023-09-18T09:36:22;7.50;;;6.47;;
2656;SDS011;1338;48.176;11.792;2023-09-18T09:38:56;8.80;;;6.10;;
2656;SDS011;1338;48.176;11.792;2023-09-18T09:41:26;7.00;;;6.40;;
2656;SDS011;1338;48.176;11.792;2023-09-18T09:43:56;6.70;;;5.83;;
2656;SDS011;1338;48.176;11.792;2023-09-18T09:46:25;7.33;;;6.60;;
2656;SDS011;1338;48.176;11.792;2023-09-18T09:48:58;8.00;;;6.63;;
2656;SDS011;1338;48.176;11.792;2023-09-18T09:51:28;7.40;;;6.70;;
2656;SDS011;1338;48.176;11.792;2023-09-18T09:53:59;7.80;;;7.10;;
2656;SDS011;1338;48.176;11.792;2023-09-18T09:56:41;7.10;;;6.10;;
2656;SDS011;1338;48.176;11.792;2023-09-18T09:59:11;6.10;;;5.60;;
2656;SDS011;1338;48.176;11.792;2023-09-18T10:01:41;6.37;;;5.87;;
2656;SDS011;1338;48.176;11.792;2023-09-18T10:04:12;6.80;;;6.13;;
2656;SDS011;1338;48.176;11.792;2023-09-18T10:06:44;6.33;;;5.73;;
2656;SDS011;1338;48.176;11.792;2023-09-18T10:09:15;8.40;;;6.20;;
2656;SDS011;1338;48.176;11.792;2023-09-18T10:11:48;6.90;;;5.97;;
2656;SDS011;1338;48.176;11.792;2023-09-18T10:14:20;6.03;;;5.53;;
2656;SDS011;1338;48.176;11.792;2023-09-18T10:16:59;7.33;;;6.10;;
2656;SDS011;1338;48.176;11.792;2023-09-18T10:19:38;7.77;;;5.67;;
2656;SDS011;1338;48.176;11.792;2023-09-18T10:22:11;8.63;;;6.23;;
2656;SDS011;1338;48.176;11.792;2023-09-18T10:24:50;6.63;;;5.90;;
2656;SDS011;1338;48.176;11.792;2023-09-18T10:27:26;5.57;;;5.00;;
2656;SDS011;1338;48.176;11.792;2023-09-18T10:29:55;7.10;;;6.40;;
2656;SDS011;1338;48.176;11.792;2023-09-18T10:32:25;6.47;;;5.70;;
2656;SDS011;1338;48.176;11.792;2023-09-18T10:34:55;7.40;;;6.60;;
2656;SDS011;1338;48.176;11.792;2023-09-18T10:37:26;8.77;;;6.07;;
2656;SDS011;1338;48.176;11.792;2023-09-18T10:39:59;6.00;;;5.50;;
2656;SDS011;1338;48.176;11.792;2023-09-18T10:42:29;6.63;;;5.80;;
2656;SDS011;1338;48.176;11.792;2023-09-18T10:45:00;7.23;;;5.73;;
2656;SDS011;1338;48.176;11.792;2023-09-18T10:47:31;6.30;;;5.73;;
2656;SDS011;1338;48.176;11.792;2023-09-18T10:50:02;7.43;;;5.60;;
2656;SDS011;1338;48.176;11.792;2023-09-18T10:52:31;5.77;;;5.20;;
2656;SDS011;1338;48.176;11.792;2023-09-18T10:55:01;7.33;;;5.80;;
2656;SDS011;1338;48.176;11.792;2023-09-18T10:57:33;5.90;;;5.30;;
2656;SDS011;1338;48.176;11.792;2023-09-18T11:00:05;5.90;;;4.83;;
2656;SDS011;1338;48.176;11.792;2023-09-18T11:02:40;5.10;;;4.60;;
2656;SDS011;1338;48.176;11.792;2023-09-18T11:05:11;5.47;;;4.93;;
2656;SDS011;1338;48.176;11.792;2023-09-18T11:07:40;7.73;;;4.50;;
2656;SDS011;1338;48.176;11.792;2023-09-18T11:10:31;5.47;;;4.90;;
2656;SDS011;1338;48.176;11.792;2023-09-18T11:13:05;11.03;;;5.17;;
2656;SDS011;1338;48.176;11.792;2023-09-18T11:15:34;4.50;;;3.70;;
2656;SDS011;1338;48.176;11.792;2023-09-18T11:18:03;5.10;;;3.90;;
2656;SDS011;1338;48.176;11.792;2023-09-18T11:20:35;6.57;;;4.67;;
2656;SDS011;1338;48.176;11.792;2023-09-18T11:23:09;5.90;;;4.50;;
2656;SDS011;1338;48.176;11.792;2023-09-18T11:25:45;6.50;;;4.17;;
2656;SDS011;1338;48.176;11.792;2023-09-18T11:28:16;5.60;;;4.10;;
2656;SDS011;1338;48.176;11.792;2023-09-18T11:30:51;5.60;;;4.40;;
2656;SDS011;1338;48.176;11.792;2023-09-18T11:33:35;7.20;;;4.37;;
2656;SDS011;1338;48.176;11.792;2023-09-18T11:36:06;7.17;;;4.57;;
2656;SDS011;1338;48.176;11.792;2023-09-18T11:38:51;8.83;;;5.40;;
2656;SDS011;1338;48.176;11.792;2023-09-18T11:41:25;8.30;;;4.50;;
2656;SDS011;1338;48.176;11.792;2023-09-18T11:46:56;6.83;;;3.77;;
2656;SDS011;1338;48.176;11.792;2023-09-18T11:49:26;7.70;;;4.00;;
2656;SDS011;1338;48.176;11.792;2023-09-18T11:52:01;6.33;;;4.37;;
2656;SDS011;1338;48.176;11.792;2023-09-18T11:54:32;4.93;;;4.00;;
2656;SDS011;1338;48.176;11.792;2023-09-18T11:57:06;3.70;;;3.40;;
2656;SDS011;1338;48.176;11.792;2023-09-18T11:59:39;5.23;;;4.17;;
2656;SDS011;1338;48.176;11.792;2023-09-18T12:02:11;6.93;;;3.63;;
2656;SDS011;1338;48.176;11.792;2023-09-18T12:04:47;3.97;;;3.40;;
2656;SDS011;1338;48.176;11.792;2023-09-18T12:07:16;4.07;;;3.67;;
2656;SDS011;1338;48.176;11.792;2023-09-18T12:09:46;4.60;;;4.20;;
2656;SDS011;1338;48.176;11.792;2023-09-18T12:12:17;4.73;;;3.60;;
2656;SDS011;1338;48.176;11.792;2023-09-18T12:14:45;4.40;;;3.40;;
2656;SDS011;1338;48.176;11.792;2023-09-18T12:17:14;5.50;;;2.80;;
2656;SDS011;1338;48.176;11.792;2023-09-18T12:19:51;4.97;;;3.27;;
2656;SDS011;1338;48.176;11.792;2023-09-18T12:22:25;5.00;;;3.27;;
2656;SDS011;1338;48.176;11.792;2023-09-18T12:25:07;3.00;;;2.70;;
2656;SDS011;1338;48.176;11.792;2023-09-18T12:27:43;2.77;;;2.53;;
2656;SDS011;1338;48.176;11.792;2023-09-18T12:30:12;3.20;;;2.90;;
2656;SDS011;1338;48.176;11.792;2023-09-18T12:32:47;2.90;;;2.63;;
2656;SDS011;1338;48.176;11.792;2023-09-18T12:35:17;5.37;;;2.40;;
2656;SDS011;1338;48.176;11.792;2023-09-18T12:37:47;4.73;;;3.03;;
2656;SDS011;1338;48.176;11.792;2023-09-18T12:40:23;3.00;;;2.60;;
2656;SDS011;1338;48.176;11.792;2023-09-18T12:42:54;3.10;;;2.47;;
2656;SDS011;1338;48.176;11.792;2023-09-18T12:45:24;4.40;;;2.60;;
2656;SDS011;1338;48.176;11.792;2023-09-18T12:47:54;4.00;;;2.60;;
2656;SDS011;1338;48.176;11.792;2023-09-18T12:50:25;3.70;;;2.40;;
2656;SDS011;1338;48.176;11.792;2023-09-18T12:53:06;6.80;;;2.50;;
2656;SDS011;1338;48.176;11.792;2023-09-18T12:55:35;3.23;;;2.93;;
2656;SDS011;1338;48.176;11.792;2023-09-18T12:58:06;3.93;;;2.20;;
2656;SDS011;1338;48.176;11.792;2023-09-18T13:00:44;3.83;;;2.77;;
2656;SDS011;1338;48.176;11.792;2023-09-18T13:03:16;3.80;;;2.60;;
2656;SDS011;1338;48.176;11.792;2023-09-18T13:05:45;3.20;;;2.43;;
2656;SDS011;1338;48.176;11.792;2023-09-18T13:08:15;5.63;;;2.60;;
2656;SDS011;1338;48.176;11.792;2023-09-18T13:10:49;3.83;;;2.37;;
2656;SDS011;1338;48.176;11.792;2023-09-18T13:13:21;2.77;;;2.57;;
2656;SDS011;1338;48.176;11.792;2023-09-18T13:15:52;4.17;;;3.10;;
2656;SDS011;1338;48.176;11.792;2023-09-18T13:18:26;2.97;;;2.77;;
2656;SDS011;1338;48.176;11.792;2023-09-18T13:20:58;3.33;;;2.40;;
2656;SDS011;1338;48.176;11.792;2023-09-18T13:23:28;2.80;;;2.57;;
2656;SDS011;1338;48.176;11.792;2023-09-18T13:26:01;2.77;;;2.40;;
2656;SDS011;1338;48.176;11.792;2023-09-18T13:28:35;3.20;;;2.50;;
2656;SDS011;1338;48.176;11.792;2023-09-18T13:31:06;2.40;;;2.20;;
2656;SDS011;1338;48.176;11.792;2023-09-18T13:33:41;2.50;;;2.30;;
2656;SDS011;1338;48.176;11.792;2023-09-18T13:36:11;4.63;;;2.40;;
2656;SDS011;1338;48.176;11.792;2023-09-18T13:38:43;2.57;;;2.17;;
2656;SDS011;1338;48.176;11.792;2023-09-18T13:41:12;3.33;;;2.40;;
2656;SDS011;1338;48.176;11.792;2023-09-18T13:43:42;3.20;;;2.33;;
2656;SDS011;1338;48.176;11.792;2023-09-18T13:46:15;2.80;;;2.47;;
2656;SDS011;1338;48.176;11.792;2023-09-18T13:48:45;2.47;;;2.27;;
2656;SDS011;1338;48.176;11.792;2023-09-18T13:51:18;2.40;;;2.17;;
2656;SDS011;1338;48.176;11.792;2023-09-18T13:53:47;3.03;;;2.60;;
2656;SDS011;1338;48.176;11.792;2023-09-18T13:56:21;2.63;;;2.43;;
2656;SDS011;1338;48.176;11.792;2023-09-18T13:58:56;3.40;;;2.33;;
2656;SDS011;1338;48.176;11.792;2023-09-18T14:01:25;2.60;;;2.33;;
2656;SDS011;1338;48.176;11.792;2023-09-18T14:03:55;2.87;;;2.30;;
2656;SDS011;1338;48.176;11.792;2023-09-18T14:06:29;3.20;;;2.33;;
2656;SDS011;1338;48.176;11.792;2023-09-18T14:08:58;3.57;;;2.50;;
2656;SDS011;1338;48.176;11.792;2023-09-18T14:11:27;2.90;;;2.60;;
2656;SDS011;1338;48.176;11.792;2023-09-18T14:13:59;4.20;;;3.60;;
2656;SDS011;1338;48.176;11.792;2023-09-18T14:16:29;2.90;;;2.30;;
2656;SDS011;1338;48.176;11.792;2023-09-18T14:19:01;6.20;;;2.90;;
2656;SDS011;1338;48.176;11.792;2023-09-18T14:21:37;2.73;;;2.30;;
2656;SDS011;1338;48.176;11.792;2023-09-18T14:24:09;2.07;;;1.97;;
2656;SDS011;1338;48.176;11.792;2023-09-18T14:26:37;4.13;;;2.50;;
2656;SDS011;1338;48.176;11.792;2023-09-18T14:29:09;2.50;;;2.30;;
2656;SDS011;1338;48.176;11.792;2023-09-18T14:31:39;3.13;;;2.20;;
2656;SDS011;1338;48.176;11.792;2023-09-18T14:34:09;2.53;;;2.17;;
2656;SDS011;1338;48.176;11.792;2023-09-18T14:36:37;3.37;;;2.30;;
2656;SDS011;1338;48.176;11.792;2023-09-18T14:39:14;3.10;;;2.33;;
2656;SDS011;1338;48.176;11.792;2023-09-18T14:41:45;3.07;;;2.20;;
2656;SDS011;1338;48.176;11.792;2023-09-18T14:44:22;2.47;;;2.03;;
2656;SDS011;1338;48.176;11.792;2023-09-18T14:46:51;2.93;;;2.53;;
2656;SDS011;1338;48.176;11.792;2023-09-18T14:49:20;2.97;;;2.40;;
2656;SDS011;1338;48.176;11.792;2023-09-18T14:51:50;1.97;;;1.87;;
2656;SDS011;1338;48.176;11.792;2023-09-18T14:54:20;3.27;;;2.40;;
2656;SDS011;1338;48.176;11.792;2023-09-18T14:56:49;2.80;;;2.60;;
2656;SDS011;1338;48.176;11.792;2023-09-18T14:59:22;2.70;;;2.23;;
2656;SDS011;1338;48.176;11.792;2023-09-18T15:02:08;2.40;;;2.20;;
2656;SDS011;1338;48.176;11.792;2023-09-18T15:04:37;3.10;;;2.07;;
2656;SDS011;1338;48.176;11.792;2023-09-18T15:07:06;3.37;;;2.00;;
2656;SDS011;1338;48.176;11.792;2023-09-18T15:09:35;3.00;;;2.20;;
2656;SDS011;1338;48.176;11.792;2023-09-18T15:12:05;2.67;;;2.00;;
2656;SDS011;1338;48.176;11.792;2023-09-18T15:14:39;1.93;;;1.73;;
2656;SDS011;1338;48.176;11.792;2023-09-18T15:17:08;2.17;;;1.97;;
2656;SDS011;1338;48.176;11.792;2023-09-18T15:19:37;2.27;;;2.07;;
2656;SDS011;1338;48.176;11.792;2023-09-18T15:22:07;3.47;;;2.50;;
2656;SDS011;1338;48.176;11.792;2023-09-18T15:24:37;2.73;;;1.97;;
2656;SDS011;1338;48.176;11.792;2023-09-18T15:27:06;2.67;;;2.00;;